Skip Navigation LinksHome page > Weather > Current weather Skip Navigation Links

Current Weather

Kansas City Intl, Kansas City, Mo.

For information only: do not use for flight planning or navigation.
Latest weather
Observation time Saturday, December 5, 2020 2:53 AM CST
Local time Saturday, December 5, 2020 3:05 AM CST
Flight conditions Visual Meteorological Conditions
Winds
Wind direction South-Southwest (200°)
Wind speed 6 mph
Visibility 10 mi.
Sky condition
Ceiling unlimited
Sky clear
Temperature 32°F
Dewpoint 26°F
Altimeter 30.11 in.Hg
Pressure change last 3 hours0.00 in.Hg
Pressure falling, then rising
Derived measurements
Relative humidity 78%
Wind chill 26°F
Density altitude -950 ft.
Sea-level pressure 30.11 in.Hg
Remarks
System requires maintenance.
Automated weather observing station with precipitation discriminator.
METAR KMCI 050853Z 20005KT 10SM CLR 00/M03 A3011 RMK AO2 SLP198 T00001033 55001 $

Settings

Location code

InnerDrive.Weather 4.0.6770.0 Release CLR 4.0.30319.42000
Copyright ©2018 Inner Drive Technology. All rights reserved. Portions Copyright ©1986-2018 David Braverman.

Find weather

Site navigation


Skip Navigation Links

Place info

Page info

PayPal - The safer, easier way to pay online!

Return home.

Copyright ©2020 Inner Drive Technology. Purveyors of fine, hand-crafted computer software. Page printed 2020-12-05T09:05:31 UTC.